Terminal Aerodrome Forecast
Issued by NWS Springfield, MO

Home | Current Version | Previous Version | Text Only | Print | Product List | Glossary On
Versions: 1 2 3 4 5 6 7 8 9 10 11 12 13 14 15 16 17 18 19 20 21
000
FTUS43 KSGF 260800 AAA
TAFSGF
TAF AMD
KSGF 260812Z 2608/2706 35017G26KT P6SM OVC010
      TEMPO 2609/2613 3SM -SN BR
     FM261300 35017G27KT P6SM SCT008 OVC015
     FM262000 35012G18KT P6SM BKN020
     FM270100 36010KT P6SM SCT025=

USA.gov is the U.S. government's official web portal to all federal, state and local government web resources and services.